Time;durP1;ratioP1;P1;durP2;ratioP2;P2;SDS_P1;SDS_P2;PMS_P1;PMS_P2;Temp;Humidity;BMP_temperature;BMP_pressure;BME280_temperature;BME280_humidity;BME280_pressure;Samples;Min_cycle;Max_cycle;Signal;HPM_P1;HPM_P2
2023/04/08 03:01:45;;;;;;;22.33;20.43;;;8.40;99.90;;;;;;5319038;23;20243;-79
2023/04/08 03:04:11;;;;;;;27.17;24.77;;;8.40;99.90;;;;;;4911836;29;20278;-79
2023/04/08 03:06:36;;;;;;;26.17;23.57;;;8.40;99.90;;;;;;4912262;29;20175;-79
2023/04/08 03:09:02;;;;;;;26.03;23.87;;;8.40;99.90;;;;;;4927339;29;20187;-79
2023/04/08 03:11:28;;;;;;;23.27;21.13;;;8.40;99.90;;;;;;4911687;29;20206;-78
2023/04/08 03:13:54;;;;;;;25.63;23.27;;;8.40;99.90;;;;;;4963619;23;20271;-77
2023/04/08 03:16:19;;;;;;;27.57;25.43;;;8.40;99.90;;;;;;4904900;29;20557;-78
2023/04/08 03:18:45;;;;;;;28.43;26.03;;;8.40;99.90;;;;;;4919054;29;20183;-77
2023/04/08 03:21:11;;;;;;;27.07;24.77;;;8.40;99.90;;;;;;4918488;29;20694;-77
2023/04/08 03:23:37;;;;;;;28.10;25.70;;;8.40;99.90;;;;;;4925170;29;20290;-76
2023/04/08 03:26:02;;;;;;;26.53;24.20;;;8.40;99.90;;;;;;4928936;29;20268;-77
2023/04/08 03:28:28;;;;;;;32.57;29.70;;;8.40;99.90;;;;;;4920755;29;20187;-77
2023/04/08 03:30:54;;;;;;;29.70;27.00;;;8.40;99.90;;;;;;4910241;29;20202;-77
2023/04/08 03:33:20;;;;;;;30.77;27.93;;;8.30;99.90;;;;;;4906991;29;20191;-77
2023/04/08 03:35:45;;;;;;;29.10;26.50;;;8.30;99.90;;;;;;4902616;29;20211;-77
2023/04/08 03:38:11;;;;;;;30.87;28.13;;;8.30;99.90;;;;;;4902761;29;20194;-77
2023/04/08 03:40:37;;;;;;;25.00;22.60;;;8.30;99.90;;;;;;4919339;29;20231;-77
2023/04/08 03:43:04;;;;;;;27.90;25.00;;;8.30;99.90;;;;;;4902826;29;20210;-77
2023/04/08 03:45:30;;;;;;;27.47;24.67;;;8.30;99.90;;;;;;4901904;29;20687;-78
2023/04/08 03:47:57;;;;;;;27.97;25.27;;;8.20;99.90;;;;;;4919231;29;20187;-76
2023/04/08 03:50:22;;;;;;;27.60;25.17;;;8.20;99.90;;;;;;4919441;29;20190;-78
2023/04/08 03:52:48;;;;;;;29.67;27.20;;;8.20;99.90;;;;;;4903384;29;20262;-78
2023/04/08 03:55:14;;;;;;;30.97;28.07;;;8.20;99.90;;;;;;4919265;29;20221;-77
2023/04/08 03:57:40;;;;;;;27.40;24.53;;;8.20;99.90;;;;;;4902558;29;20191;-78
2023/04/08 04:00:06;;;;;;;27.57;24.87;;;8.10;99.90;;;;;;4905759;29;20697;-77
2023/04/08 04:02:32;;;;;;;24.03;20.07;;;8.10;99.90;;;;;;4918583;29;20187;-77
2023/04/08 04:04:58;;;;;;;23.03;19.80;;;8.00;99.90;;;;;;4918028;29;20199;-76
2023/04/08 04:07:24;;;;;;;24.60;21.83;;;8.00;99.90;;;;;;4916743;29;20282;-77
2023/04/08 04:09:53;;;;;;;24.20;21.60;;;8.10;99.90;;;;;;4916340;29;20275;-78
2023/04/08 04:12:18;;;;;;;24.90;21.37;;;8.10;99.90;;;;;;4916413;29;20600;-77
2023/04/08 04:14:47;;;;;;;25.93;23.27;;;8.00;99.90;;;;;;4919884;29;20226;-78
2023/04/08 04:17:13;;;;;;;23.90;21.50;;;8.10;99.90;;;;;;4918176;29;20191;-77
2023/04/08 04:19:38;;;;;;;20.57;18.40;;;8.10;99.90;;;;;;4908466;29;20215;-78
2023/04/08 04:22:04;;;;;;;25.23;20.70;;;8.10;99.90;;;;;;4921256;29;20562;-77
2023/04/08 04:24:31;;;;;;;26.43;23.73;;;8.10;99.90;;;;;;4899663;29;20210;-76
2023/04/08 04:26:57;;;;;;;28.77;26.07;;;8.10;99.90;;;;;;4914182;29;20187;-77
2023/04/08 04:29:23;;;;;;;22.87;20.40;;;8.10;99.90;;;;;;4920356;29;20682;-77
2023/04/08 04:31:49;;;;;;;20.53;17.97;;;8.10;99.90;;;;;;4904922;29;20191;-76
2023/04/08 04:34:15;;;;;;;24.83;22.23;;;8.10;99.90;;;;;;4923133;29;20271;-77
2023/04/08 04:36:40;;;;;;;24.63;22.23;;;8.10;99.90;;;;;;4927280;29;20253;-77
2023/04/08 04:39:06;;;;;;;23.00;20.73;;;8.00;99.90;;;;;;4936290;29;20212;-79
2023/04/08 04:41:34;;;;;;;22.83;19.20;;;7.90;99.90;;;;;;4930313;29;20561;-78
2023/04/08 04:44:00;;;;;;;24.40;20.27;;;7.90;99.90;;;;;;4900051;29;20203;-78
2023/04/08 04:46:26;;;;;;;23.67;19.50;;;7.90;99.90;;;;;;4921497;29;20183;-78
2023/04/08 04:48:51;;;;;;;22.83;18.87;;;7.90;99.90;;;;;;4916654;29;20815;-78
2023/04/08 04:51:17;;;;;;;23.10;18.80;;;7.90;99.90;;;;;;4900913;29;20194;-78
2023/04/08 04:53:43;;;;;;;28.10;19.33;;;7.90;99.90;;;;;;4926516;29;20334;-78
2023/04/08 04:56:09;;;;;;;21.87;19.43;;;8.00;99.90;;;;;;4901931;29;20245;-78
2023/04/08 04:58:35;;;;;;;22.83;20.37;;;8.00;99.90;;;;;;4917296;29;20218;-78
2023/04/08 05:01:00;;;;;;;23.23;20.03;;;8.10;99.90;;;;;;4914820;29;20219;-77
2023/04/08 05:03:26;;;;;;;22.17;19.03;;;8.10;99.90;;;;;;4915184;29;20194;-79
2023/04/08 05:05:53;;;;;;;23.67;18.93;;;8.10;99.90;;;;;;4897982;29;20186;-76
2023/04/08 05:08:19;;;;;;;25.33;20.23;;;8.20;99.90;;;;;;4914873;29;20186;-76
2023/04/08 05:10:45;;;;;;;23.27;19.70;;;8.30;99.90;;;;;;4915744;29;20191;-77
2023/04/08 05:13:11;;;;;;;24.00;20.63;;;8.20;99.90;;;;;;4898166;29;20229;-77
2023/04/08 05:15:36;;;;;;;22.60;20.20;;;8.30;99.90;;;;;;4915260;29;20222;-77
2023/04/08 05:18:02;;;;;;;24.83;21.80;;;8.30;99.90;;;;;;4899131;29;20187;-76
2023/04/08 05:20:29;;;;;;;24.93;20.30;;;8.30;99.90;;;;;;4923228;29;20218;-76
2023/04/08 05:22:54;;;;;;;25.73;21.40;;;8.30;99.90;;;;;;4918058;29;20187;-75
2023/04/08 05:25:20;;;;;;;25.87;20.00;;;8.30;99.90;;;;;;4924271;29;20217;-76
2023/04/08 05:27:46;;;;;;;27.23;21.47;;;8.30;99.90;;;;;;4918820;29;20562;-76
2023/04/08 05:30:12;;;;;;;23.70;19.27;;;8.20;99.90;;;;;;4898345;29;20187;-77
2023/04/08 05:32:37;;;;;;;26.10;19.93;;;8.30;99.90;;;;;;4915578;29;20254;-77
2023/04/08 05:35:04;;;;;;;24.37;19.97;;;8.20;99.90;;;;;;4898009;29;20215;-76
2023/04/08 05:37:30;;;;;;;22.23;19.37;;;8.20;99.90;;;;;;4915559;29;20606;-77
2023/04/08 05:39:55;;;;;;;20.60;17.83;;;8.20;99.90;;;;;;4897930;29;20258;-69
2023/04/08 05:42:21;;;;;;;22.03;17.83;;;8.10;99.90;;;;;;4914039;29;20185;-69
2023/04/08 05:44:47;;;;;;;21.30;18.97;;;8.10;99.90;;;;;;4914549;29;20305;-69
2023/04/08 05:47:13;;;;;;;21.13;17.30;;;8.00;99.90;;;;;;4914508;29;20178;-69
2023/04/08 05:49:39;;;;;;;21.77;19.30;;;7.90;99.90;;;;;;4912393;29;20221;-70
2023/04/08 05:52:05;;;;;;;23.90;21.40;;;8.00;99.90;;;;;;4914245;29;20568;-69
2023/04/08 05:54:31;;;;;;;24.10;21.70;;;8.00;99.90;;;;;;4914279;29;20780;-69
2023/04/08 05:56:57;;;;;;;22.77;20.37;;;8.10;99.90;;;;;;4914149;29;20183;-70
2023/04/08 05:59:23;;;;;;;23.30;20.87;;;8.20;99.90;;;;;;4913979;29;20183;-69
2023/04/08 06:01:49;;;;;;;20.00;17.70;;;8.20;99.90;;;;;;4913958;29;20314;-70
2023/04/08 06:04:16;;;;;;;18.63;16.63;;;8.30;99.90;;;;;;4913903;29;20207;-70
2023/04/08 06:06:42;;;;;;;20.43;18.37;;;8.40;99.90;;;;;;4913794;29;20622;-70
2023/04/08 06:09:11;;;;;;;22.40;20.00;;;8.50;99.90;;;;;;4898487;29;20206;-71
2023/04/08 06:11:37;;;;;;;24.07;21.70;;;8.60;99.90;;;;;;4915799;29;20226;-71
2023/04/08 06:14:02;;;;;;;21.47;17.90;;;8.70;99.90;;;;;;4918709;29;20249;-70
2023/04/08 06:16:28;;;;;;;18.90;16.87;;;8.70;99.90;;;;;;4919458;29;20187;-70
2023/04/08 06:18:54;;;;;;;21.33;19.07;;;8.70;99.90;;;;;;4917638;29;20190;-72
2023/04/08 06:21:20;;;;;;;22.17;20.20;;;8.80;99.90;;;;;;4917455;29;20207;-71
2023/04/08 06:23:46;;;;;;;28.80;26.20;;;8.90;99.90;;;;;;4917904;29;20226;-71
2023/04/08 06:26:12;;;;;;;22.60;20.33;;;9.00;99.90;;;;;;4936750;29;20186;-71
2023/04/08 06:28:37;;;;;;;18.93;16.83;;;9.10;99.90;;;;;;4936550;29;20218;-71
2023/04/08 06:31:03;;;;;;;18.10;16.30;;;9.20;99.90;;;;;;4927711;29;20187;-70
2023/04/08 06:33:29;;;;;;;18.57;15.57;;;9.20;99.90;;;;;;4900414;29;20691;-72
2023/04/08 06:36:05;;;;;;;16.73;14.77;;;9.30;99.90;;;;;;4917632;29;20295;-72
2023/04/08 06:38:31;;;;;;;18.00;14.40;;;9.40;99.90;;;;;;4917446;29;20190;-69
2023/04/08 06:41:07;;;;;;;17.30;15.50;;;9.40;99.90;;;;;;4900289;29;20732;-72
2023/04/08 06:43:34;;;;;;;17.73;15.97;;;9.30;99.90;;;;;;4917140;29;20187;-71
2023/04/08 06:46:00;;;;;;;17.20;15.47;;;9.50;99.90;;;;;;4900391;29;20774;-71
2023/04/08 06:48:29;;;;;;;39.57;36.67;;;9.70;99.90;;;;;;4916618;29;20416;-71
2023/04/08 06:51:00;;;;;;;71.03;66.70;;;9.90;99.90;;;;;;4917242;29;20193;-71
2023/04/08 06:53:31;;;;;;;28.30;26.10;;;10.10;99.90;;;;;;4917364;29;20193;-70
2023/04/08 06:55:57;;;;;;;20.47;18.47;;;10.00;99.90;;;;;;4925782;29;20194;-70
2023/04/08 06:58:23;;;;;;;22.87;20.80;;;10.10;99.90;;;;;;4913957;29;20202;-70
2023/04/08 07:00:49;;;;;;;25.33;23.20;;;10.10;99.90;;;;;;4899863;29;20687;-70
2023/04/08 07:03:15;;;;;;;27.40;24.97;;;9.90;99.90;;;;;;4917403;29;20270;-71
2023/04/08 07:05:41;;;;;;;27.07;24.43;;;10.00;99.90;;;;;;4900364;29;20215;-70
2023/04/08 07:08:07;;;;;;;27.53;25.03;;;10.00;99.90;;;;;;4900395;29;20188;-70
2023/04/08 07:10:36;;;;;;;23.07;20.77;;;10.00;99.90;;;;;;4916358;29;20616;-71
2023/04/08 07:13:02;;;;;;;20.60;18.67;;;10.00;99.90;;;;;;4916829;29;20187;-71
2023/04/08 07:15:28;;;;;;;20.70;18.80;;;9.90;99.90;;;;;;4899852;29;20246;-71
2023/04/08 07:17:57;;;;;;;23.47;21.37;;;9.80;99.90;;;;;;4916907;29;20721;-71
2023/04/08 07:20:23;;;;;;;25.67;23.23;;;9.80;99.90;;;;;;4916407;29;20214;-71
2023/04/08 07:22:49;;;;;;;23.13;20.83;;;9.90;99.90;;;;;;4916093;29;20198;-70
2023/04/08 07:25:15;;;;;;;21.20;19.10;;;9.80;99.90;;;;;;4897216;29;20223;-71
2023/04/08 07:27:41;;;;;;;23.03;20.73;;;9.80;99.90;;;;;;4914987;29;20223;-70
2023/04/08 07:30:07;;;;;;;22.07;20.10;;;9.90;99.90;;;;;;4914766;29;20575;-70
2023/04/08 07:32:33;;;;;;;17.20;15.23;;;10.00;99.90;;;;;;4915235;29;20873;-70
2023/04/08 07:35:00;;;;;;;17.23;15.20;;;10.00;99.90;;;;;;4914956;29;20481;-71
2023/04/08 07:37:28;;;;;;;16.53;14.77;;;10.00;99.90;;;;;;4897998;29;20187;-70
2023/04/08 07:39:54;;;;;;;16.37;14.53;;;10.10;99.90;;;;;;4898892;29;20214;-70
2023/04/08 07:42:20;;;;;;;17.13;14.33;;;10.20;99.90;;;;;;4916698;29;20187;-70
2023/04/08 07:44:46;;;;;;;17.73;15.43;;;10.20;99.90;;;;;;4899563;29;20578;-70
2023/04/08 07:47:12;;;;;;;16.57;14.73;;;10.10;99.90;;;;;;4916671;29;20186;-70
2023/04/08 07:49:38;;;;;;;18.40;16.40;;;10.10;99.90;;;;;;4899326;29;20179;-70
2023/04/08 07:52:05;;;;;;;18.80;15.87;;;10.30;99.90;;;;;;4899798;29;20179;-70
2023/04/08 07:54:34;;;;;;;29.47;27.00;;;10.50;99.90;;;;;;4916353;29;20205;-72
2023/04/08 07:57:01;;;;;;;40.47;37.07;;;10.60;99.90;;;;;;4901822;29;20270;-71
2023/04/08 07:59:27;;;;;;;41.50;38.23;;;10.70;99.90;;;;;;4919394;29;20190;-71
2023/04/08 08:01:53;;;;;;;36.13;33.00;;;10.90;99.90;;;;;;4919586;29;20214;-71
2023/04/08 08:04:18;;;;;;;27.83;24.87;;;11.00;99.90;;;;;;4916831;29;20218;-71
2023/04/08 08:06:45;;;;;;;21.50;19.00;;;11.10;99.90;;;;;;4916783;29;20183;-71
2023/04/08 08:09:10;;;;;;;20.80;18.60;;;11.20;99.90;;;;;;4899652;29;20218;-71
2023/04/08 08:11:36;;;;;;;20.83;18.80;;;11.50;99.90;;;;;;4916847;29;20183;-70
2023/04/08 08:14:03;;;;;;;23.37;21.27;;;11.80;99.90;;;;;;4916217;29;20246;-71
2023/04/08 08:16:30;;;;;;;21.43;19.50;;;12.00;99.90;;;;;;4916287;29;20194;-71
2023/04/08 08:18:56;;;;;;;16.43;14.73;;;12.20;99.90;;;;;;4898699;29;20189;-71
2023/04/08 08:21:23;;;;;;;16.93;15.33;;;12.20;99.90;;;;;;4898860;29;20214;-70
2023/04/08 08:23:51;;;;;;;17.53;15.73;;;12.20;99.90;;;;;;4904477;29;20204;-70
2023/04/08 08:26:17;;;;;;;15.03;13.50;;;12.40;99.90;;;;;;4914499;29;20278;-71
2023/04/08 08:28:43;;;;;;;19.93;18.30;;;12.80;99.90;;;;;;4919460;29;20612;-70
2023/04/08 08:31:09;;;;;;;19.00;17.20;;;13.10;99.90;;;;;;4934125;29;20285;-74
2023/04/08 08:33:35;;;;;;;18.33;16.53;;;13.30;99.90;;;;;;4917334;29;20186;-67
2023/04/08 08:36:01;;;;;;;18.53;17.03;;;13.20;99.90;;;;;;4927798;29;20186;-68
2023/04/08 08:38:27;;;;;;;23.27;21.47;;;13.00;99.90;;;;;;4914556;29;20183;-68
2023/04/08 08:40:57;;;;;;;22.93;20.83;;;13.00;99.90;;;;;;4919039;29;20584;-68
2023/04/08 08:43:24;;;;;;;20.47;18.47;;;12.90;99.90;;;;;;4934250;29;20192;-68
2023/04/08 08:45:50;;;;;;;18.13;16.43;;;12.70;99.90;;;;;;4933821;29;20206;-67
2023/04/08 08:48:16;;;;;;;20.70;18.73;;;12.80;99.90;;;;;;4933981;29;20182;-67
2023/04/08 08:50:42;;;;;;;27.40;24.97;;;12.80;99.90;;;;;;4921085;29;20190;-67
2023/04/08 08:53:08;;;;;;;31.63;29.07;;;12.90;99.90;;;;;;4914813;29;20191;-71
2023/04/08 08:55:34;;;;;;;42.33;39.40;;;13.10;99.90;;;;;;4914170;29;20757;-75
2023/04/08 08:58:01;;;;;;;44.70;41.80;;;13.40;99.90;;;;;;4914211;29;20195;-71
2023/04/08 09:00:38;;;;;;;45.37;42.57;;;13.50;99.90;;;;;;4914875;29;20218;-71
2023/04/08 09:03:26;;;;;;;17.33;15.83;;;13.90;99.90;;;;;;4914237;29;20189;-71
2023/04/08 09:05:56;;;;;;;15.23;13.83;;;14.00;99.90;;;;;;4895137;29;20195;-76
2023/04/08 09:08:29;;;;;;;13.53;12.23;;;14.20;99.90;;;;;;4879168;29;20566;-76
2023/04/08 09:11:09;;;;;;;14.10;12.70;;;14.30;99.90;;;;;;4903205;29;20271;-76
2023/04/08 09:13:37;;;;;;;14.00;12.50;;;14.20;99.90;;;;;;4895068;29;20845;-76
2023/04/08 09:16:05;;;;;;;14.10;12.73;;;13.70;99.90;;;;;;4945498;23;20230;-76
2023/04/08 09:18:32;;;;;;;15.30;13.80;;;13.50;99.90;;;;;;4928183;29;20551;-69
2023/04/08 09:21:01;;;;;;;15.30;13.80;;;13.50;99.90;;;;;;4914810;29;20230;-69
2023/04/08 09:23:42;;;;;;;15.27;12.60;;;13.40;99.90;;;;;;4897796;29;20194;-69
2023/04/08 09:26:15;;;;;;;24.83;13.40;;;13.70;99.90;;;;;;4914694;29;20714;-70
2023/04/08 09:28:43;;;;;;;17.00;15.43;;;14.30;99.90;;;;;;4947727;29;20554;-70
2023/04/08 09:31:19;;;;;;;17.37;15.77;;;14.30;99.90;;;;;;4949405;28;20251;-70
2023/04/08 09:33:47;;;;;;;16.93;15.33;;;14.30;99.90;;;;;;4927109;29;20190;-70
2023/04/08 09:36:14;;;;;;;16.80;15.27;;;15.00;99.90;;;;;;4897765;29;20207;-74
2023/04/08 09:38:40;;;;;;;14.80;13.40;;;15.70;99.90;;;;;;4897112;29;20697;-74
2023/04/08 09:41:07;;;;;;;15.93;14.10;;;16.50;99.90;;;;;;4914483;29;20206;-75
2023/04/08 09:43:50;;;;;;;17.30;15.80;;;16.80;99.90;;;;;;4922072;29;20681;-74
2023/04/08 09:46:18;;;;;;;17.53;16.03;;;16.30;99.90;;;;;;4934263;29;20209;-74
2023/04/08 09:48:59;;;;;;;18.17;16.70;;;15.40;99.90;;;;;;4938791;29;20543;-74
2023/04/08 09:51:32;;;;;;;17.57;16.10;;;15.20;99.90;;;;;;4940086;29;20272;-74
2023/04/08 09:54:05;;;;;;;17.77;16.27;;;15.10;99.90;;;;;;4923305;29;20288;-74
2023/04/08 09:56:42;;;;;;;18.10;16.57;;;14.50;99.90;;;;;;4940665;29;20190;-74
2023/04/08 09:59:16;;;;;;;19.57;18.00;;;14.10;99.90;;;;;;4940259;29;20185;-74
2023/04/08 10:01:52;;;;;;;20.00;18.30;;;14.10;99.90;;;;;;4939905;29;20229;-75
2023/04/08 10:04:20;;;;;;;19.13;17.53;;;14.20;99.90;;;;;;4923338;29;20726;-74
2023/04/08 10:07:03;;;;;;;19.17;17.63;;;14.20;99.90;;;;;;4908945;29;20179;-74
2023/04/08 10:09:31;;;;;;;17.97;16.37;;;14.30;99.90;;;;;;4924739;29;20182;-74
2023/04/08 10:11:57;;;;;;;16.80;15.40;;;14.10;99.90;;;;;;4904236;29;20282;-74
2023/04/08 10:14:26;;;;;;;18.10;16.60;;;14.00;99.90;;;;;;4920721;29;20686;-74
2023/04/08 10:17:26;;;;;;;16.30;14.20;;;13.60;99.90;;;;;;4910053;29;20182;-74
2023/04/08 10:19:52;;;;;;;15.63;14.10;;;13.20;99.90;;;;;;4939256;29;20268;-74
2023/04/08 10:22:33;;;;;;;29.17;26.87;;;12.90;99.90;;;;;;4939930;29;20806;-72
2023/04/08 10:25:32;;;;;;;33.40;31.00;;;12.60;99.90;;;;;;4923421;29;20293;-74
2023/04/08 10:27:59;;;;;;;20.33;18.63;;;12.30;99.90;;;;;;4922801;29;20198;-73
2023/04/08 10:30:30;;;;;;;21.13;19.23;;;12.30;99.90;;;;;;4936336;29;20614;-74
2023/04/08 10:32:59;;;;;;;21.10;19.30;;;12.30;99.90;;;;;;4903911;29;20191;-74
2023/04/08 10:35:33;;;;;;;21.93;20.00;;;12.20;99.90;;;;;;4920795;29;20211;-75
2023/04/08 10:38:00;;;;;;;25.10;23.10;;;12.20;99.90;;;;;;4920687;29;20189;-72
2023/04/08 10:40:26;;;;;;;26.00;24.20;;;12.30;99.90;;;;;;4920266;29;20294;-75
2023/04/08 10:42:59;;;;;;;25.60;23.60;;;12.30;99.90;;;;;;4920687;29;20275;-74
2023/04/08 10:45:25;;;;;;;26.17;24.07;;;12.40;99.90;;;;;;4915403;29;20549;-75
2023/04/08 10:47:50;;;;;;;24.63;22.63;;;12.50;99.90;;;;;;4922909;29;20246;-75
2023/04/08 10:50:18;;;;;;;16.87;15.40;;;12.70;99.90;;;;;;4922512;29;20228;-75
2023/04/08 10:52:51;;;;;;;17.93;16.33;;;12.80;99.90;;;;;;4939652;29;20186;-75
2023/04/08 10:55:25;;;;;;;21.13;19.37;;;12.90;99.90;;;;;;4940578;29;20248;-74
2023/04/08 10:57:52;;;;;;;14.13;12.93;;;13.00;99.90;;;;;;4940529;29;20209;-75
2023/04/08 11:00:31;;;;;;;14.53;13.13;;;13.20;99.90;;;;;;4923547;29;20242;-75
2023/04/08 11:03:04;;;;;;;15.13;13.87;;;13.50;99.90;;;;;;4918582;29;20255;-74
2023/04/08 11:05:31;;;;;;;14.90;13.57;;;13.40;99.90;;;;;;4901119;29;20207;-74
2023/04/08 11:08:00;;;;;;;17.10;15.77;;;13.60;99.90;;;;;;4900694;29;20239;-75
2023/04/08 11:10:27;;;;;;;18.27;16.77;;;13.60;99.90;;;;;;4900408;29;20191;-74
2023/04/08 11:12:57;;;;;;;18.00;16.70;;;13.60;99.90;;;;;;4902856;29;20660;-75
2023/04/08 11:15:29;;;;;;;17.63;16.33;;;13.50;99.90;;;;;;4919304;29;20222;-75
2023/04/08 11:17:55;;;;;;;16.43;15.23;;;13.40;99.90;;;;;;4936500;29;20187;-75
2023/04/08 11:20:21;;;;;;;16.53;15.20;;;13.30;99.10;;;;;;4918800;29;20214;-75
2023/04/08 11:22:47;;;;;;;16.13;14.93;;;13.40;99.10;;;;;;4919280;29;20190;-75
2023/04/08 11:25:14;;;;;;;12.43;11.33;;;13.40;98.60;;;;;;4936184;29;20623;-74
2023/04/08 11:27:39;;;;;;;15.60;14.30;;;13.10;97.90;;;;;;4915986;29;20659;-74
2023/04/08 11:30:10;;;;;;;16.90;15.50;;;12.70;98.70;;;;;;4916899;29;20198;-73
2023/04/08 11:32:37;;;;;;;16.17;14.93;;;12.40;99.30;;;;;;4900194;29;20194;-74
2023/04/08 11:35:06;;;;;;;17.40;16.10;;;12.50;99.90;;;;;;4916960;29;20218;-74
2023/04/08 11:37:37;;;;;;;18.70;17.10;;;12.60;99.70;;;;;;4900127;29;20227;-74
2023/04/08 11:40:07;;;;;;;16.93;15.73;;;12.70;98.30;;;;;;4917188;29;20219;-74
2023/04/08 11:42:33;;;;;;;16.27;15.27;;;12.70;98.10;;;;;;4900996;29;20195;-74
2023/04/08 11:44:58;;;;;;;18.47;16.97;;;12.70;97.50;;;;;;4916671;29;20305;-74
2023/04/08 11:47:32;;;;;;;17.77;16.37;;;12.70;98.40;;;;;;4900099;29;20190;-74
2023/04/08 11:49:58;;;;;;;18.17;16.60;;;12.70;98.60;;;;;;4916499;29;20265;-74
2023/04/08 11:52:40;;;;;;;17.63;16.33;;;12.70;99.00;;;;;;4916808;29;20186;-74
2023/04/08 11:55:06;;;;;;;19.00;17.60;;;12.70;98.90;;;;;;4899987;29;20203;-74
2023/04/08 11:57:32;;;;;;;19.20;17.80;;;12.60;98.80;;;;;;4917705;29;20202;-74
2023/04/08 11:59:58;;;;;;;19.67;18.27;;;12.40;99.10;;;;;;4916412;29;20182;-73
2023/04/08 12:02:24;;;;;;;18.37;17.03;;;12.40;99.90;;;;;;4900186;29;20227;-75
2023/04/08 12:04:49;;;;;;;20.30;18.70;;;12.50;99.90;;;;;;4901872;29;20254;-74
2023/04/08 12:07:16;;;;;;;18.50;17.10;;;12.50;99.60;;;;;;4908560;29;20201;-74
2023/04/08 12:09:42;;;;;;;19.17;17.77;;;12.60;99.90;;;;;;4917145;29;20242;-74
2023/04/08 12:12:07;;;;;;;17.90;16.50;;;12.60;99.90;;;;;;4911312;29;20186;-74
2023/04/08 12:14:33;;;;;;;17.50;16.30;;;12.50;99.90;;;;;;4903205;29;20718;-74
2023/04/08 12:16:59;;;;;;;16.67;15.40;;;12.50;99.90;;;;;;4916403;29;20631;-74
2023/04/08 12:19:25;;;;;;;17.47;16.27;;;12.60;99.90;;;;;;4916201;29;20194;-73
2023/04/08 12:21:51;;;;;;;18.60;17.27;;;12.70;99.90;;;;;;4899671;29;20592;-74
2023/04/08 12:24:17;;;;;;;19.40;17.90;;;12.90;99.90;;;;;;4916317;29;20282;-74
2023/04/08 12:26:43;;;;;;;19.67;18.07;;;13.00;99.90;;;;;;4915890;29;20211;-74
2023/04/08 12:29:10;;;;;;;19.30;17.63;;;13.10;99.90;;;;;;4916786;29;20183;-74
2023/04/08 12:31:36;;;;;;;19.63;18.03;;;13.30;99.90;;;;;;4915934;29;20674;-74
2023/04/08 12:34:02;;;;;;;18.50;17.00;;;13.40;99.90;;;;;;4915916;29;20191;-74
2023/04/08 12:36:27;;;;;;;16.97;15.67;;;13.30;99.90;;;;;;4915922;29;20195;-74
2023/04/08 12:38:53;;;;;;;17.27;15.90;;;13.20;99.70;;;;;;4899064;29;20274;-73
2023/04/08 12:41:19;;;;;;;20.90;19.17;;;12.80;99.90;;;;;;4919844;29;20208;-74
2023/04/08 12:43:45;;;;;;;18.37;16.90;;;12.80;99.90;;;;;;4934382;29;20237;-73
2023/04/08 12:46:11;;;;;;;18.07;16.57;;;12.90;99.90;;;;;;4934652;29;20206;-73
2023/04/08 12:48:37;;;;;;;18.73;17.33;;;13.00;99.90;;;;;;4917597;29;20218;-74
2023/04/08 12:51:03;;;;;;;18.77;17.17;;;13.10;99.90;;;;;;4934403;29;20183;-74
2023/04/08 12:53:29;;;;;;;18.83;17.23;;;12.90;99.90;;;;;;4934593;29;20275;-74
2023/04/08 12:55:56;;;;;;;16.17;14.83;;;12.60;99.90;;;;;;4924828;29;20210;-74
2023/04/08 12:58:24;;;;;;;16.00;14.80;;;12.60;99.90;;;;;;4916456;29;20187;-75
2023/04/08 13:00:50;;;;;;;16.37;14.87;;;12.50;99.90;;;;;;4915356;29;20211;-74
2023/04/08 13:03:16;;;;;;;16.87;15.30;;;12.40;99.90;;;;;;4915615;29;20183;-74
2023/04/08 13:05:43;;;;;;;15.73;14.47;;;12.30;99.90;;;;;;4915182;29;20205;-75
2023/04/08 13:08:10;;;;;;;15.13;13.93;;;12.30;99.90;;;;;;4915276;29;20270;-75
2023/04/08 13:10:36;;;;;;;16.57;15.13;;;12.30;99.90;;;;;;4919379;29;20182;-75
2023/04/08 13:13:02;;;;;;;15.67;14.27;;;12.50;99.90;;;;;;4915353;29;20529;-75
2023/04/08 13:15:28;;;;;;;15.03;13.73;;;12.60;99.90;;;;;;4915007;29;20218;-74
2023/04/08 13:17:54;;;;;;;16.57;15.00;;;12.70;99.90;;;;;;4916552;29;20214;-72
2023/04/08 13:20:24;;;;;;;16.10;14.90;;;12.80;99.90;;;;;;4915605;29;20221;-72
2023/04/08 13:22:51;;;;;;;15.90;14.70;;;12.80;99.90;;;;;;4918217;29;20194;-72
2023/04/08 13:25:17;;;;;;;15.10;13.87;;;12.80;99.90;;;;;;4934435;29;20201;-73
2023/04/08 13:27:43;;;;;;;16.17;14.90;;;12.80;99.90;;;;;;4934121;29;20827;-72
2023/04/08 13:30:09;;;;;;;15.83;14.43;;;13.00;99.90;;;;;;4933648;29;20194;-72
2023/04/08 13:32:35;;;;;;;14.53;13.30;;;12.90;99.90;;;;;;4934172;29;20193;-73
2023/04/08 13:35:01;;;;;;;16.17;14.67;;;12.50;99.90;;;;;;4916713;29;20210;-73
2023/04/08 13:37:27;;;;;;;15.70;14.40;;;12.50;99.90;;;;;;4908269;29;20203;-73
2023/04/08 13:39:53;;;;;;;15.97;14.47;;;12.70;99.90;;;;;;4914231;29;20748;-73
2023/04/08 13:42:19;;;;;;;15.60;14.10;;;12.80;99.90;;;;;;4914746;29;20269;-73
2023/04/08 13:44:44;;;;;;;15.47;14.30;;;12.70;99.90;;;;;;4898010;29;20682;-72
2023/04/08 13:47:11;;;;;;;15.23;14.03;;;12.70;99.90;;;;;;4914799;29;20548;-73
2023/04/08 13:49:37;;;;;;;13.93;12.83;;;12.40;99.90;;;;;;4897802;29;20190;-74
2023/04/08 13:52:03;;;;;;;13.03;11.67;;;12.30;99.90;;;;;;4915971;29;20269;-73
2023/04/08 13:54:28;;;;;;;12.83;11.73;;;12.30;99.90;;;;;;4897746;29;20294;-74
2023/04/08 13:56:54;;;;;;;12.50;11.60;;;12.50;99.90;;;;;;4914705;29;20191;-74
2023/04/08 13:59:20;;;;;;;14.47;13.00;;;12.60;99.90;;;;;;4914627;29;20187;-74
2023/04/08 14:01:47;;;;;;;13.93;12.83;;;12.80;99.90;;;;;;4898312;29;20539;-74
2023/04/08 14:04:13;;;;;;;13.40;12.23;;;12.90;99.90;;;;;;4932202;29;20182;-74
2023/04/08 14:06:38;;;;;;;13.60;12.67;;;13.00;99.90;;;;;;4924614;29;20242;-74
2023/04/08 14:09:04;;;;;;;12.90;12.00;;;12.80;99.90;;;;;;4944716;29;20196;-73
2023/04/08 14:11:30;;;;;;;13.43;12.43;;;12.70;99.90;;;;;;4935021;29;20182;-68
2023/04/08 14:13:56;;;;;;;12.97;12.07;;;12.70;99.90;;;;;;4952980;29;20189;-73
2023/04/08 14:16:21;;;;;;;12.63;11.63;;;12.60;99.90;;;;;;4918172;29;20267;-74
2023/04/08 14:18:47;;;;;;;12.33;11.53;;;12.60;99.90;;;;;;4931281;29;20198;-74
2023/04/08 14:21:14;;;;;;;12.03;11.23;;;12.50;99.90;;;;;;4915013;29;20218;-74
2023/04/08 14:23:40;;;;;;;11.67;10.80;;;12.40;99.90;;;;;;4933499;29;20178;-74
2023/04/08 14:26:06;;;;;;;11.30;10.43;;;12.40;99.90;;;;;;4933532;29;20550;-74
2023/04/08 14:28:31;;;;;;;10.43;9.73;;;12.50;99.90;;;;;;4933160;29;20171;-73
2023/04/08 14:30:57;;;;;;;10.63;9.80;;;12.50;99.90;;;;;;4915026;29;20190;-73
2023/04/08 14:33:23;;;;;;;10.20;9.50;;;12.60;99.90;;;;;;4934620;29;20201;-73
2023/04/08 14:35:48;;;;;;;10.07;9.47;;;12.70;99.90;;;;;;4937081;29;20682;-74
2023/04/08 14:38:14;;;;;;;11.13;10.43;;;12.70;99.90;;;;;;4939173;29;20222;-73
2023/04/08 14:40:40;;;;;;;11.83;10.93;;;12.70;99.90;;;;;;4920773;29;20206;-73
2023/04/08 14:43:06;;;;;;;11.63;10.77;;;12.80;99.90;;;;;;4920369;29;20178;-73
2023/04/08 14:45:32;;;;;;;12.03;11.23;;;13.00;99.90;;;;;;4920481;29;20241;-73
2023/04/08 14:47:57;;;;;;;12.13;11.20;;;13.10;99.90;;;;;;4938055;29;20182;-74
2023/04/08 14:50:23;;;;;;;11.30;10.60;;;13.00;99.90;;;;;;4919815;29;20218;-74
2023/04/08 14:52:49;;;;;;;11.03;10.30;;;13.00;99.90;;;;;;4937012;29;20571;-74
2023/04/08 14:55:16;;;;;;;11.30;10.30;;;12.90;99.90;;;;;;4936729;29;20260;-73
2023/04/08 14:57:41;;;;;;;11.13;10.23;;;12.90;99.90;;;;;;4935286;29;20185;-73
2023/04/08 15:00:08;;;;;;;11.30;10.57;;;12.70;99.90;;;;;;4919666;29;20186;-73
2023/04/08 15:02:34;;;;;;;10.57;9.70;;;12.30;99.90;;;;;;4919964;29;20227;-74
2023/04/08 15:05:00;;;;;;;8.23;7.70;;;12.20;99.90;;;;;;4936717;29;20285;-73
2023/04/08 15:07:26;;;;;;;8.70;8.10;;;12.30;99.90;;;;;;4919887;29;20183;-73
2023/04/08 15:09:53;;;;;;;8.00;7.37;;;12.40;99.90;;;;;;4936408;29;20681;-73
2023/04/08 15:12:18;;;;;;;9.27;8.63;;;12.30;99.90;;;;;;4925044;29;20190;-73
2023/04/08 15:14:44;;;;;;;10.43;9.63;;;12.00;99.90;;;;;;4932959;23;20230;-72
2023/04/08 15:17:10;;;;;;;12.43;11.43;;;12.00;99.90;;;;;;4919561;29;20214;-71
2023/04/08 15:19:36;;;;;;;20.20;18.97;;;12.00;99.90;;;;;;4935792;29;20193;-72
2023/04/08 15:22:01;;;;;;;20.53;19.43;;;11.90;99.90;;;;;;4919357;29;20810;-72
2023/04/08 15:24:27;;;;;;;19.00;18.00;;;12.00;99.90;;;;;;4917910;29;20206;-72
2023/04/08 15:26:53;;;;;;;21.50;20.30;;;12.00;99.90;;;;;;4916971;29;20250;-72
2023/04/08 15:29:22;;;;;;;34.47;32.57;;;11.90;99.90;;;;;;4916903;29;20601;-71
2023/04/08 15:31:48;;;;;;;40.20;38.10;;;11.60;99.90;;;;;;4917500;29;20624;-72